sensor_id;sensor_type;location;lat;lon;timestamp;temperature;humidity
14735;DHT22;7458;49.002;8.472;2023-04-01T00:01:00;11.00;99.90
14735;DHT22;7458;49.002;8.472;2023-04-01T00:03:27;11.00;99.90
14735;DHT22;7458;49.002;8.472;2023-04-01T00:05:55;11.00;99.90
14735;DHT22;7458;49.002;8.472;2023-04-01T00:08:22;11.00;99.90
14735;DHT22;7458;49.002;8.472;2023-04-01T00:10:48;11.00;99.90
14735;DHT22;7458;49.002;8.472;2023-04-01T00:13:15;11.10;99.90
14735;DHT22;7458;49.002;8.472;2023-04-01T00:15:41;11.00;99.90
14735;DHT22;7458;49.002;8.472;2023-04-01T00:18:08;11.00;99.90
14735;DHT22;7458;49.002;8.472;2023-04-01T00:20:34;11.00;99.90
14735;DHT22;7458;49.002;8.472;2023-04-01T00:23:00;11.00;99.90
14735;DHT22;7458;49.002;8.472;2023-04-01T00:25:26;11.00;99.90
14735;DHT22;7458;49.002;8.472;2023-04-01T00:27:52;11.00;99.90
14735;DHT22;7458;49.002;8.472;2023-04-01T00:30:18;11.00;99.90
14735;DHT22;7458;49.002;8.472;2023-04-01T00:32:44;11.00;99.90
14735;DHT22;7458;49.002;8.472;2023-04-01T00:35:10;11.00;99.90
14735;DHT22;7458;49.002;8.472;2023-04-01T00:37:38;11.00;99.90
14735;DHT22;7458;49.002;8.472;2023-04-01T00:40:08;11.10;99.90
14735;DHT22;7458;49.002;8.472;2023-04-01T00:42:46;11.00;99.90
14735;DHT22;7458;49.002;8.472;2023-04-01T00:45:28;11.10;99.90
14735;DHT22;7458;49.002;8.472;2023-04-01T00:47:55;11.10;99.90
14735;DHT22;7458;49.002;8.472;2023-04-01T00:50:24;11.10;99.90
14735;DHT22;7458;49.002;8.472;2023-04-01T00:52:52;11.10;99.90
14735;DHT22;7458;49.002;8.472;2023-04-01T00:55:19;11.10;99.90
14735;DHT22;7458;49.002;8.472;2023-04-01T00:57:49;11.00;99.90
14735;DHT22;7458;49.002;8.472;2023-04-01T01:00:18;11.10;99.90
14735;DHT22;7458;49.002;8.472;2023-04-01T01:02:45;11.00;99.90
14735;DHT22;7458;49.002;8.472;2023-04-01T01:05:16;11.00;99.90
14735;DHT22;7458;49.002;8.472;2023-04-01T01:10:44;11.00;99.90
14735;DHT22;7458;49.002;8.472;2023-04-01T01:13:36;11.00;99.90
14735;DHT22;7458;49.002;8.472;2023-04-01T01:19:26;11.00;99.90
14735;DHT22;7458;49.002;8.472;2023-04-01T01:25:34;11.10;99.90
14735;DHT22;7458;49.002;8.472;2023-04-01T01:28:33;11.10;99.90
14735;DHT22;7458;49.002;8.472;2023-04-01T01:31:36;11.10;99.90
14735;DHT22;7458;49.002;8.472;2023-04-01T01:37:24;11.00;99.90
14735;DHT22;7458;49.002;8.472;2023-04-01T01:39:59;11.00;99.90
14735;DHT22;7458;49.002;8.472;2023-04-01T01:42:30;11.10;99.90
14735;DHT22;7458;49.002;8.472;2023-04-01T01:44:59;11.00;99.90
14735;DHT22;7458;49.002;8.472;2023-04-01T01:47:28;10.90;99.90
14735;DHT22;7458;49.002;8.472;2023-04-01T01:49:55;10.90;99.90
14735;DHT22;7458;49.002;8.472;2023-04-01T01:52:23;10.90;99.90
14735;DHT22;7458;49.002;8.472;2023-04-01T01:54:54;10.90;99.90
14735;DHT22;7458;49.002;8.472;2023-04-01T01:57:29;10.80;99.90
14735;DHT22;7458;49.002;8.472;2023-04-01T02:00:07;10.80;99.90
14735;DHT22;7458;49.002;8.472;2023-04-01T02:02:46;10.80;99.90
14735;DHT22;7458;49.002;8.472;2023-04-01T02:05:18;10.80;99.90
14735;DHT22;7458;49.002;8.472;2023-04-01T02:07:52;10.80;99.90
14735;DHT22;7458;49.002;8.472;2023-04-01T02:10:31;10.80;99.90
14735;DHT22;7458;49.002;8.472;2023-04-01T02:13:08;10.80;99.90
14735;DHT22;7458;49.002;8.472;2023-04-01T02:15:44;10.70;99.90
14735;DHT22;7458;49.002;8.472;2023-04-01T02:18:15;10.80;99.90
14735;DHT22;7458;49.002;8.472;2023-04-01T02:20:44;10.80;99.90
14735;DHT22;7458;49.002;8.472;2023-04-01T02:23:10;10.80;99.90
14735;DHT22;7458;49.002;8.472;2023-04-01T02:25:38;10.80;99.90
14735;DHT22;7458;49.002;8.472;2023-04-01T02:28:07;10.70;99.90
14735;DHT22;7458;49.002;8.472;2023-04-01T02:30:38;10.80;99.90
14735;DHT22;7458;49.002;8.472;2023-04-01T02:33:06;10.80;99.90
14735;DHT22;7458;49.002;8.472;2023-04-01T02:35:36;10.80;99.90
14735;DHT22;7458;49.002;8.472;2023-04-01T02:38:03;10.90;99.90
14735;DHT22;7458;49.002;8.472;2023-04-01T02:40:40;10.90;99.90
14735;DHT22;7458;49.002;8.472;2023-04-01T02:43:07;10.90;99.90
14735;DHT22;7458;49.002;8.472;2023-04-01T02:45:33;10.90;99.90
14735;DHT22;7458;49.002;8.472;2023-04-01T02:47:58;10.90;99.90
14735;DHT22;7458;49.002;8.472;2023-04-01T02:50:24;10.90;99.90
14735;DHT22;7458;49.002;8.472;2023-04-01T02:52:50;10.90;99.90
14735;DHT22;7458;49.002;8.472;2023-04-01T02:55:16;10.80;99.90
14735;DHT22;7458;49.002;8.472;2023-04-01T02:57:42;10.90;99.90
14735;DHT22;7458;49.002;8.472;2023-04-01T03:00:08;10.80;99.90
14735;DHT22;7458;49.002;8.472;2023-04-01T03:02:37;10.80;99.90
14735;DHT22;7458;49.002;8.472;2023-04-01T03:05:05;10.90;99.90
14735;DHT22;7458;49.002;8.472;2023-04-01T03:07:31;10.90;99.90
14735;DHT22;7458;49.002;8.472;2023-04-01T03:09:57;10.80;99.90
14735;DHT22;7458;49.002;8.472;2023-04-01T03:12:22;10.80;99.90
14735;DHT22;7458;49.002;8.472;2023-04-01T03:14:48;10.80;99.90
14735;DHT22;7458;49.002;8.472;2023-04-01T03:17:14;10.90;99.90
14735;DHT22;7458;49.002;8.472;2023-04-01T03:19:41;10.80;99.90
14735;DHT22;7458;49.002;8.472;2023-04-01T03:22:09;10.80;99.90
14735;DHT22;7458;49.002;8.472;2023-04-01T03:24:36;10.80;99.90
14735;DHT22;7458;49.002;8.472;2023-04-01T03:27:02;10.70;99.90
14735;DHT22;7458;49.002;8.472;2023-04-01T03:29:28;10.70;99.90
14735;DHT22;7458;49.002;8.472;2023-04-01T03:31:54;10.70;99.90
14735;DHT22;7458;49.002;8.472;2023-04-01T03:34:19;10.80;99.90
14735;DHT22;7458;49.002;8.472;2023-04-01T03:36:45;10.80;99.90
14735;DHT22;7458;49.002;8.472;2023-04-01T03:39:11;10.80;99.90
14735;DHT22;7458;49.002;8.472;2023-04-01T03:41:37;10.80;99.90
14735;DHT22;7458;49.002;8.472;2023-04-01T03:44:03;10.90;99.90
14735;DHT22;7458;49.002;8.472;2023-04-01T03:46:29;10.90;99.90
14735;DHT22;7458;49.002;8.472;2023-04-01T03:48:55;10.90;99.90
14735;DHT22;7458;49.002;8.472;2023-04-01T03:51:21;10.90;99.90
14735;DHT22;7458;49.002;8.472;2023-04-01T03:53:47;10.90;99.90
14735;DHT22;7458;49.002;8.472;2023-04-01T03:56:14;10.90;99.90
14735;DHT22;7458;49.002;8.472;2023-04-01T03:58:40;10.90;99.90
14735;DHT22;7458;49.002;8.472;2023-04-01T04:01:20;10.90;99.90
14735;DHT22;7458;49.002;8.472;2023-04-01T04:03:47;10.90;99.90
14735;DHT22;7458;49.002;8.472;2023-04-01T04:06:16;10.90;99.90
14735;DHT22;7458;49.002;8.472;2023-04-01T04:08:43;10.90;99.90
14735;DHT22;7458;49.002;8.472;2023-04-01T04:11:10;10.90;99.90
14735;DHT22;7458;49.002;8.472;2023-04-01T04:13:36;10.90;99.90
14735;DHT22;7458;49.002;8.472;2023-04-01T04:16:03;10.90;99.90
14735;DHT22;7458;49.002;8.472;2023-04-01T04:18:29;11.00;99.90
14735;DHT22;7458;49.002;8.472;2023-04-01T04:20:55;11.00;99.90
14735;DHT22;7458;49.002;8.472;2023-04-01T04:23:21;11.00;99.90
14735;DHT22;7458;49.002;8.472;2023-04-01T04:25:59;11.00;99.90
14735;DHT22;7458;49.002;8.472;2023-04-01T04:28:27;11.00;99.90
14735;DHT22;7458;49.002;8.472;2023-04-01T04:30:54;11.10;99.90
14735;DHT22;7458;49.002;8.472;2023-04-01T04:33:21;11.10;99.90
14735;DHT22;7458;49.002;8.472;2023-04-01T04:35:48;11.10;99.90
14735;DHT22;7458;49.002;8.472;2023-04-01T04:38:14;11.10;99.90
14735;DHT22;7458;49.002;8.472;2023-04-01T04:40:41;11.10;99.90
14735;DHT22;7458;49.002;8.472;2023-04-01T04:43:10;11.10;99.90
14735;DHT22;7458;49.002;8.472;2023-04-01T04:45:37;11.10;99.90
14735;DHT22;7458;49.002;8.472;2023-04-01T04:48:03;11.10;99.90
14735;DHT22;7458;49.002;8.472;2023-04-01T04:50:29;11.10;99.90
14735;DHT22;7458;49.002;8.472;2023-04-01T04:52:54;11.10;99.90
14735;DHT22;7458;49.002;8.472;2023-04-01T04:55:21;11.20;99.90
14735;DHT22;7458;49.002;8.472;2023-04-01T04:57:47;11.10;99.90
14735;DHT22;7458;49.002;8.472;2023-04-01T05:00:13;11.20;99.90
14735;DHT22;7458;49.002;8.472;2023-04-01T05:02:39;11.10;99.90
14735;DHT22;7458;49.002;8.472;2023-04-01T05:05:05;11.10;99.90
14735;DHT22;7458;49.002;8.472;2023-04-01T05:07:33;11.20;99.90
14735;DHT22;7458;49.002;8.472;2023-04-01T05:09:59;11.20;99.90
14735;DHT22;7458;49.002;8.472;2023-04-01T05:12:25;11.10;99.90
14735;DHT22;7458;49.002;8.472;2023-04-01T05:14:51;11.20;99.90
14735;DHT22;7458;49.002;8.472;2023-04-01T05:17:17;11.20;99.90
14735;DHT22;7458;49.002;8.472;2023-04-01T05:19:42;11.20;99.90
14735;DHT22;7458;49.002;8.472;2023-04-01T05:22:08;11.20;99.90
14735;DHT22;7458;49.002;8.472;2023-04-01T05:24:34;11.20;99.90
14735;DHT22;7458;49.002;8.472;2023-04-01T05:27:00;11.20;99.90
14735;DHT22;7458;49.002;8.472;2023-04-01T05:29:26;11.20;99.90
14735;DHT22;7458;49.002;8.472;2023-04-01T05:31:52;11.20;99.90
14735;DHT22;7458;49.002;8.472;2023-04-01T05:34:17;11.20;99.90
14735;DHT22;7458;49.002;8.472;2023-04-01T05:36:44;11.10;99.90
14735;DHT22;7458;49.002;8.472;2023-04-01T05:39:10;11.10;99.90
14735;DHT22;7458;49.002;8.472;2023-04-01T05:41:37;11.00;99.90
14735;DHT22;7458;49.002;8.472;2023-04-01T05:44:04;11.00;99.90
14735;DHT22;7458;49.002;8.472;2023-04-01T05:46:31;11.00;99.90
14735;DHT22;7458;49.002;8.472;2023-04-01T05:48:57;10.90;99.90
14735;DHT22;7458;49.002;8.472;2023-04-01T05:51:23;11.00;99.90
14735;DHT22;7458;49.002;8.472;2023-04-01T05:53:49;10.90;99.90
14735;DHT22;7458;49.002;8.472;2023-04-01T05:56:15;10.80;99.90
14735;DHT22;7458;49.002;8.472;2023-04-01T05:58:41;10.70;99.90
14735;DHT22;7458;49.002;8.472;2023-04-01T06:01:11;10.60;99.90
14735;DHT22;7458;49.002;8.472;2023-04-01T06:03:37;10.60;99.90
14735;DHT22;7458;49.002;8.472;2023-04-01T06:06:03;10.60;99.90
14735;DHT22;7458;49.002;8.472;2023-04-01T06:08:31;10.60;99.90
14735;DHT22;7458;49.002;8.472;2023-04-01T06:16:42;10.60;99.90
14735;DHT22;7458;49.002;8.472;2023-04-01T06:22:43;10.60;99.90
14735;DHT22;7458;49.002;8.472;2023-04-01T06:25:17;10.50;99.90
14735;DHT22;7458;49.002;8.472;2023-04-01T06:42:28;10.50;99.90
14735;DHT22;7458;49.002;8.472;2023-04-01T06:50:51;10.40;99.90
14735;DHT22;7458;49.002;8.472;2023-04-01T06:53:59;10.60;99.90
14735;DHT22;7458;49.002;8.472;2023-04-01T06:56:45;10.60;99.90
14735;DHT22;7458;49.002;8.472;2023-04-01T06:59:22;10.60;99.90
14735;DHT22;7458;49.002;8.472;2023-04-01T07:01:57;10.70;99.90
14735;DHT22;7458;49.002;8.472;2023-04-01T07:04:30;10.70;99.90
14735;DHT22;7458;49.002;8.472;2023-04-01T07:07:03;10.80;99.90
14735;DHT22;7458;49.002;8.472;2023-04-01T07:09:53;10.90;99.90
14735;DHT22;7458;49.002;8.472;2023-04-01T07:15:19;10.70;99.90
14735;DHT22;7458;49.002;8.472;2023-04-01T07:17:58;10.80;99.90
14735;DHT22;7458;49.002;8.472;2023-04-01T07:20:32;10.80;99.90
14735;DHT22;7458;49.002;8.472;2023-04-01T07:23:03;10.90;99.90
14735;DHT22;7458;49.002;8.472;2023-04-01T07:25:37;10.80;99.90
14735;DHT22;7458;49.002;8.472;2023-04-01T07:28:12;10.70;99.90
14735;DHT22;7458;49.002;8.472;2023-04-01T07:34:02;10.60;99.90
14735;DHT22;7458;49.002;8.472;2023-04-01T07:36:45;10.60;99.90
14735;DHT22;7458;49.002;8.472;2023-04-01T07:54:02;10.50;99.90
14735;DHT22;7458;49.002;8.472;2023-04-01T07:59:35;10.20;99.90
14735;DHT22;7458;49.002;8.472;2023-04-01T08:02:28;10.10;99.90
14735;DHT22;7458;49.002;8.472;2023-04-01T08:05:22;10.10;99.90
14735;DHT22;7458;49.002;8.472;2023-04-01T08:10:57;10.10;99.90
14735;DHT22;7458;49.002;8.472;2023-04-01T08:22:40;10.10;99.90
14735;DHT22;7458;49.002;8.472;2023-04-01T08:25:16;10.30;99.90
14735;DHT22;7458;49.002;8.472;2023-04-01T08:27:58;10.50;99.90
14735;DHT22;7458;49.002;8.472;2023-04-01T08:36:08;10.80;99.90
14735;DHT22;7458;49.002;8.472;2023-04-01T08:38:49;10.80;99.90
14735;DHT22;7458;49.002;8.472;2023-04-01T08:47:37;11.10;99.90
14735;DHT22;7458;49.002;8.472;2023-04-01T08:50:41;11.20;99.90
14735;DHT22;7458;49.002;8.472;2023-04-01T08:56:20;11.30;99.90
14735;DHT22;7458;49.002;8.472;2023-04-01T09:10:56;11.60;99.90
14735;DHT22;7458;49.002;8.472;2023-04-01T09:14:02;11.50;99.90
14735;DHT22;7458;49.002;8.472;2023-04-01T09:20:14;11.70;99.90
14735;DHT22;7458;49.002;8.472;2023-04-01T09:38:09;11.40;99.90
14735;DHT22;7458;49.002;8.472;2023-04-01T09:40:55;11.50;99.90
14735;DHT22;7458;49.002;8.472;2023-04-01T09:49:36;11.40;99.90
14735;DHT22;7458;49.002;8.472;2023-04-01T09:57:51;11.50;99.90
14735;DHT22;7458;49.002;8.472;2023-04-01T10:00:50;11.60;99.90
14735;DHT22;7458;49.002;8.472;2023-04-01T10:06:47;11.70;99.90
14735;DHT22;7458;49.002;8.472;2023-04-01T11:03:53;11.90;99.90
14735;DHT22;7458;49.002;8.472;2023-04-01T11:12:39;11.90;99.90
14735;DHT22;7458;49.002;8.472;2023-04-01T11:39:20;11.60;99.90
14735;DHT22;7458;49.002;8.472;2023-04-01T11:42:26;11.60;99.90
14735;DHT22;7458;49.002;8.472;2023-04-01T11:45:19;11.60;99.90
14735;DHT22;7458;49.002;8.472;2023-04-01T11:54:24;11.70;99.90
14735;DHT22;7458;49.002;8.472;2023-04-01T12:00:23;11.70;99.90
14735;DHT22;7458;49.002;8.472;2023-04-01T12:03:46;11.80;99.90
14735;DHT22;7458;49.002;8.472;2023-04-01T12:09:58;11.90;99.90
14735;DHT22;7458;49.002;8.472;2023-04-01T12:22:04;11.50;99.90
14735;DHT22;7458;49.002;8.472;2023-04-01T12:24:55;11.20;99.90
14735;DHT22;7458;49.002;8.472;2023-04-01T12:27:45;11.10;99.90
14735;DHT22;7458;49.002;8.472;2023-04-01T12:45:34;10.50;99.90
14735;DHT22;7458;49.002;8.472;2023-04-01T12:51:38;10.70;99.90
14735;DHT22;7458;49.002;8.472;2023-04-01T13:08:57;10.40;99.90
14735;DHT22;7458;49.002;8.472;2023-04-01T13:17:22;10.40;99.90
14735;DHT22;7458;49.002;8.472;2023-04-01T13:23:06;10.60;99.90
14735;DHT22;7458;49.002;8.472;2023-04-01T13:25:58;10.70;99.90
14735;DHT22;7458;49.002;8.472;2023-04-01T13:28:37;10.60;99.90
14735;DHT22;7458;49.002;8.472;2023-04-01T13:31:29;10.60;99.90
14735;DHT22;7458;49.002;8.472;2023-04-01T13:34:27;10.60;99.90
14735;DHT22;7458;49.002;8.472;2023-04-01T13:37:15;10.70;99.90
14735;DHT22;7458;49.002;8.472;2023-04-01T13:40:02;10.70;99.90
14735;DHT22;7458;49.002;8.472;2023-04-01T13:42:45;10.50;99.90
14735;DHT22;7458;49.002;8.472;2023-04-01T13:45:19;10.50;99.90
14735;DHT22;7458;49.002;8.472;2023-04-01T13:53:23;10.50;99.90
14735;DHT22;7458;49.002;8.472;2023-04-01T14:08:30;10.60;99.90
14735;DHT22;7458;49.002;8.472;2023-04-01T14:20:10;11.00;99.90
14735;DHT22;7458;49.002;8.472;2023-04-01T14:29:36;10.90;99.90
14735;DHT22;7458;49.002;8.472;2023-04-01T14:32:51;10.80;99.90
14735;DHT22;7458;49.002;8.472;2023-04-01T14:35:37;10.80;99.90
14735;DHT22;7458;49.002;8.472;2023-04-01T14:50:19;10.80;99.90
14735;DHT22;7458;49.002;8.472;2023-04-01T14:52:56;10.70;99.90
14735;DHT22;7458;49.002;8.472;2023-04-01T14:58:16;10.70;99.90
14735;DHT22;7458;49.002;8.472;2023-04-01T15:00:54;10.60;99.90
14735;DHT22;7458;49.002;8.472;2023-04-01T15:11:53;10.80;99.90
14735;DHT22;7458;49.002;8.472;2023-04-01T15:20:32;10.70;99.90
14735;DHT22;7458;49.002;8.472;2023-04-01T15:37:54;11.00;99.90
14735;DHT22;7458;49.002;8.472;2023-04-01T15:40:43;11.00;99.90
14735;DHT22;7458;49.002;8.472;2023-04-01T16:13:37;10.80;99.90
14735;DHT22;7458;49.002;8.472;2023-04-01T16:29:56;10.60;99.90
14735;DHT22;7458;49.002;8.472;2023-04-01T16:33:28;11.10;99.90
14735;DHT22;7458;49.002;8.472;2023-04-01T16:38:41;11.00;99.90
14735;DHT22;7458;49.002;8.472;2023-04-01T16:41:17;11.10;99.90
14735;DHT22;7458;49.002;8.472;2023-04-01T16:44:43;10.90;99.90
14735;DHT22;7458;49.002;8.472;2023-04-01T16:46:59;11.70;99.90
14735;DHT22;7458;49.002;8.472;2023-04-01T16:49:46;10.70;99.90
14735;DHT22;7458;49.002;8.472;2023-04-01T16:55:20;10.80;99.90
14735;DHT22;7458;49.002;8.472;2023-04-01T16:57:56;11.00;99.90
14735;DHT22;7458;49.002;8.472;2023-04-01T17:00:37;11.20;99.90
14735;DHT22;7458;49.002;8.472;2023-04-01T17:03:28;10.70;99.90
14735;DHT22;7458;49.002;8.472;2023-04-01T17:11:21;10.60;99.90
14735;DHT22;7458;49.002;8.472;2023-04-01T17:14:23;10.80;99.90
14735;DHT22;7458;49.002;8.472;2023-04-01T17:17:19;10.50;99.90
14735;DHT22;7458;49.002;8.472;2023-04-01T17:23:14;11.10;99.90
14735;DHT22;7458;49.002;8.472;2023-04-01T17:28:46;10.80;99.90
14735;DHT22;7458;49.002;8.472;2023-04-01T17:42:35;10.80;99.90
14735;DHT22;7458;49.002;8.472;2023-04-01T17:45:30;10.80;99.90
14735;DHT22;7458;49.002;8.472;2023-04-01T17:48:08;10.50;99.90
14735;DHT22;7458;49.002;8.472;2023-04-01T17:53:43;9.80;99.90
14735;DHT22;7458;49.002;8.472;2023-04-01T17:59:22;10.60;99.90
14735;DHT22;7458;49.002;8.472;2023-04-01T18:17:24;10.30;99.90
14735;DHT22;7458;49.002;8.472;2023-04-01T18:25:43;10.30;99.90
14735;DHT22;7458;49.002;8.472;2023-04-01T18:31:09;9.70;99.90
14735;DHT22;7458;49.002;8.472;2023-04-01T18:39:20;10.20;99.90
14735;DHT22;7458;49.002;8.472;2023-04-01T18:45:32;10.20;99.90
14735;DHT22;7458;49.002;8.472;2023-04-01T18:48:21;10.40;99.90
14735;DHT22;7458;49.002;8.472;2023-04-01T18:51:11;9.80;99.90
14735;DHT22;7458;49.002;8.472;2023-04-01T18:53:50;9.80;99.90
14735;DHT22;7458;49.002;8.472;2023-04-01T18:56:34;9.80;99.90
14735;DHT22;7458;49.002;8.472;2023-04-01T18:59:25;9.90;99.90
14735;DHT22;7458;49.002;8.472;2023-04-01T19:05:11;9.90;99.90
14735;DHT22;7458;49.002;8.472;2023-04-01T19:07:50;10.10;99.90
14735;DHT22;7458;49.002;8.472;2023-04-01T19:22:33;9.80;99.90
14735;DHT22;7458;49.002;8.472;2023-04-01T19:25:25;9.50;99.90
14735;DHT22;7458;49.002;8.472;2023-04-01T19:30:57;9.80;99.90
14735;DHT22;7458;49.002;8.472;2023-04-01T19:36:45;10.30;99.90
14735;DHT22;7458;49.002;8.472;2023-04-01T19:45:47;10.50;99.90
14735;DHT22;7458;49.002;8.472;2023-04-01T19:51:23;10.50;99.90
14735;DHT22;7458;49.002;8.472;2023-04-01T19:54:21;10.50;99.90
14735;DHT22;7458;49.002;8.472;2023-04-01T20:00:44;10.30;99.90
14735;DHT22;7458;49.002;8.472;2023-04-01T20:12:36;10.50;99.90
14735;DHT22;7458;49.002;8.472;2023-04-01T20:15:32;11.10;99.90
14735;DHT22;7458;49.002;8.472;2023-04-01T20:18:23;10.20;99.90
14735;DHT22;7458;49.002;8.472;2023-04-01T20:21:03;10.60;99.90
14735;DHT22;7458;49.002;8.472;2023-04-01T20:23:47;10.50;99.90
14735;DHT22;7458;49.002;8.472;2023-04-01T20:26:40;10.60;99.90
14735;DHT22;7458;49.002;8.472;2023-04-01T20:35:17;10.30;99.90
14735;DHT22;7458;49.002;8.472;2023-04-01T20:38:30;11.20;99.90
14735;DHT22;7458;49.002;8.472;2023-04-01T20:41:11;10.70;99.90
14735;DHT22;7458;49.002;8.472;2023-04-01T20:43:59;10.80;99.90
14735;DHT22;7458;49.002;8.472;2023-04-01T20:47:03;10.40;99.90
14735;DHT22;7458;49.002;8.472;2023-04-01T20:52:32;10.40;99.90
14735;DHT22;7458;49.002;8.472;2023-04-01T21:04:27;10.50;99.90
14735;DHT22;7458;49.002;8.472;2023-04-01T21:12:50;10.60;99.90
14735;DHT22;7458;49.002;8.472;2023-04-01T21:15:44;11.00;99.90
14735;DHT22;7458;49.002;8.472;2023-04-01T21:18:46;10.70;99.90
14735;DHT22;7458;49.002;8.472;2023-04-01T21:21:30;10.80;99.90
14735;DHT22;7458;49.002;8.472;2023-04-01T21:36:35;10.90;99.90
14735;DHT22;7458;49.002;8.472;2023-04-01T21:57:42;10.70;99.90
14735;DHT22;7458;49.002;8.472;2023-04-01T22:01:04;10.30;99.90
14735;DHT22;7458;49.002;8.472;2023-04-01T22:09:50;10.80;99.90
14735;DHT22;7458;49.002;8.472;2023-04-01T22:12:29;10.60;99.90
14735;DHT22;7458;49.002;8.472;2023-04-01T22:18:05;10.20;99.90
14735;DHT22;7458;49.002;8.472;2023-04-01T22:26:16;10.30;99.90
14735;DHT22;7458;49.002;8.472;2023-04-01T22:29:07;10.60;99.90
14735;DHT22;7458;49.002;8.472;2023-04-01T22:32:08;10.60;99.90
14735;DHT22;7458;49.002;8.472;2023-04-01T22:34:59;10.70;99.90
14735;DHT22;7458;49.002;8.472;2023-04-01T22:38:11;10.50;99.90
14735;DHT22;7458;49.002;8.472;2023-04-01T22:41:05;10.70;99.90
14735;DHT22;7458;49.002;8.472;2023-04-01T22:43:40;10.70;99.90
14735;DHT22;7458;49.002;8.472;2023-04-01T22:48:50;11.10;99.90
14735;DHT22;7458;49.002;8.472;2023-04-01T22:57:14;10.60;99.90
14735;DHT22;7458;49.002;8.472;2023-04-01T22:59:51;11.20;99.90
14735;DHT22;7458;49.002;8.472;2023-04-01T23:02:29;10.70;99.90
14735;DHT22;7458;49.002;8.472;2023-04-01T23:05:01;11.00;99.90
14735;DHT22;7458;49.002;8.472;2023-04-01T23:22:54;10.30;99.90
14735;DHT22;7458;49.002;8.472;2023-04-01T23:30:54;10.80;99.90
14735;DHT22;7458;49.002;8.472;2023-04-01T23:33:23;10.80;99.90
14735;DHT22;7458;49.002;8.472;2023-04-01T23:36:12;10.40;99.90
14735;DHT22;7458;49.002;8.472;2023-04-01T23:38:42;10.40;99.90
14735;DHT22;7458;49.002;8.472;2023-04-01T23:41:27;10.10;99.90
14735;DHT22;7458;49.002;8.472;2023-04-01T23:44:08;10.30;99.90
14735;DHT22;7458;49.002;8.472;2023-04-01T23:46:40;10.30;99.90
14735;DHT22;7458;49.002;8.472;2023-04-01T23:49:20;9.90;99.90
14735;DHT22;7458;49.002;8.472;2023-04-01T23:51:53;10.20;99.90
14735;DHT22;7458;49.002;8.472;2023-04-01T23:54:57;9.90;99.90
14735;DHT22;7458;49.002;8.472;2023-04-01T23:57:31;10.60;99.90
